createdAt,value
2023-05-10T00:02:55.032Z,1.23
2023-05-10T00:05:58.166Z,1.40
2023-05-10T00:09:13.878Z,1.27
2023-05-10T00:12:17.957Z,1.58
2023-05-10T00:15:56.014Z,1.45
2023-05-10T00:19:02.059Z,1.87
2023-05-10T00:22:29.970Z,1.48
2023-05-10T00:25:39.389Z,1.65
2023-05-10T00:28:54.872Z,1.77
2023-05-10T00:32:03.921Z,1.52
2023-05-10T00:35:22.270Z,2.33
2023-05-10T00:39:08.011Z,1.73
2023-05-10T00:42:37.655Z,1.83
2023-05-10T00:49:41.693Z,1.70
2023-05-10T00:53:01.219Z,1.87
2023-05-10T00:56:11.024Z,1.70
2023-05-10T00:59:47.869Z,1.92
2023-05-10T01:03:07.405Z,1.70
2023-05-10T01:06:11.398Z,1.80
2023-05-10T01:09:45.138Z,1.87
2023-05-10T01:13:03.191Z,1.98
2023-05-10T01:16:42.006Z,1.40
2023-05-10T01:19:55.454Z,2.10
2023-05-10T01:27:27.000Z,2.00
2023-05-10T01:31:12.775Z,1.90
2023-05-10T01:34:28.318Z,1.87
2023-05-10T01:41:48.899Z,1.87
2023-05-10T01:49:05.297Z,1.75
2023-05-10T01:52:21.436Z,1.85
2023-05-10T02:09:59.785Z,1.90
2023-05-10T02:13:11.751Z,1.50
2023-05-10T02:16:33.599Z,1.90
2023-05-10T02:19:50.817Z,2.25
2023-05-10T02:23:10.792Z,2.50
2023-05-10T02:26:24.865Z,2.45
2023-05-10T02:29:45.186Z,2.87
2023-05-10T02:32:58.908Z,2.43
2023-05-10T02:36:18.007Z,2.00
2023-05-10T02:39:30.597Z,2.40
2023-05-10T02:42:53.911Z,1.90
2023-05-10T02:46:08.737Z,1.92
2023-05-10T02:53:40.940Z,2.42
2023-05-10T02:57:02.581Z,2.47
2023-05-10T03:00:22.671Z,2.22
2023-05-10T03:03:44.180Z,2.35
2023-05-10T03:06:48.689Z,2.23
2023-05-10T03:10:16.071Z,3.20
2023-05-10T03:13:33.505Z,2.28
2023-05-10T03:16:55.403Z,2.60
2023-05-10T03:20:18.213Z,2.78
2023-05-10T03:23:50.272Z,2.53
2023-05-10T03:30:57.656Z,2.37
2023-05-10T03:34:11.235Z,2.33
2023-05-10T03:37:22.606Z,2.80
2023-05-10T03:40:49.047Z,2.10
2023-05-10T03:44:00.777Z,2.42
2023-05-10T03:47:11.604Z,2.40
2023-05-10T03:50:33.432Z,2.70
2023-05-10T03:53:43.627Z,2.20
2023-05-10T03:57:10.646Z,2.67
2023-05-10T04:00:27.713Z,2.53
2023-05-10T04:03:38.652Z,2.35
2023-05-10T04:06:54.857Z,2.50
2023-05-10T04:10:06.813Z,2.85
2023-05-10T04:13:22.856Z,2.10
2023-05-10T04:16:38.206Z,2.35
2023-05-10T04:19:54.583Z,2.53
2023-05-10T04:22:59.915Z,3.05
2023-05-10T04:26:41.148Z,2.62
2023-05-10T04:30:26.744Z,3.00
2023-05-10T04:33:31.966Z,3.20
2023-05-10T04:36:54.016Z,3.17
2023-05-10T04:40:06.382Z,3.12
2023-05-10T04:43:18.432Z,3.12
2023-05-10T04:46:31.764Z,3.07
2023-05-10T04:53:07.356Z,3.35
2023-05-10T05:00:00.644Z,3.12
2023-05-10T05:03:10.751Z,2.60
2023-05-10T05:18:43.614Z,3.15
2023-05-10T05:22:33.165Z,2.47
2023-05-10T05:26:48.429Z,2.92
2023-05-10T05:41:27.277Z,2.73
2023-05-10T05:48:24.808Z,2.05
2023-05-10T05:51:47.999Z,2.40
2023-05-10T06:13:54.243Z,2.85
2023-05-10T06:17:12.937Z,2.63
2023-05-10T06:32:35.275Z,2.45
2023-05-10T06:36:38.712Z,2.63
2023-05-10T06:39:56.668Z,2.87
2023-05-10T06:42:59.756Z,2.40
2023-05-10T06:46:48.749Z,2.83
2023-05-10T06:53:45.156Z,2.33
2023-05-10T06:56:57.415Z,3.17
2023-05-10T07:00:07.281Z,3.15
2023-05-10T07:03:19.812Z,2.72
2023-05-10T07:17:15.874Z,3.20
2023-05-10T07:20:31.628Z,2.87
2023-05-10T07:40:06.692Z,2.83
2023-05-10T07:43:20.503Z,2.20
2023-05-10T07:47:16.338Z,2.50
2023-05-10T07:54:04.793Z,2.28
2023-05-10T07:57:27.759Z,2.00
2023-05-10T08:01:26.246Z,2.85
2023-05-10T08:04:41.050Z,2.33
2023-05-10T08:11:14.871Z,2.65
2023-05-10T08:14:27.602Z,2.10
2023-05-10T08:17:43.956Z,2.25
2023-05-10T08:21:02.975Z,1.93
2023-05-10T08:24:21.111Z,2.20
2023-05-10T08:27:42.548Z,1.80
2023-05-10T08:31:10.690Z,1.90
2023-05-10T08:34:27.734Z,2.30
2023-05-10T08:37:34.244Z,2.40
2023-05-10T08:40:53.699Z,2.58
2023-05-10T08:56:35.271Z,1.90
2023-05-10T08:59:45.536Z,2.10
2023-05-10T09:03:25.596Z,1.98
2023-05-10T09:07:01.692Z,2.37
2023-05-10T09:10:16.701Z,2.40
2023-05-10T09:13:46.634Z,1.70
2023-05-10T09:40:04.564Z,1.77
2023-05-10T10:59:20.892Z,1.75
2023-05-10T11:06:44.961Z,1.20
2023-05-10T11:10:09.430Z,1.27
2023-05-10T11:53:53.727Z,0.95
2023-05-10T12:09:12.957Z,1.00
2023-05-10T12:19:44.822Z,1.20
2023-05-10T12:27:18.113Z,1.05
2023-05-10T12:30:37.626Z,1.10
2023-05-10T16:41:07.027Z,0.73
2023-05-10T16:44:26.516Z,1.00
2023-05-10T16:52:15.549Z,1.20
2023-05-10T17:00:07.440Z,0.88
2023-05-10T17:10:53.886Z,1.30
2023-05-10T19:20:54.874Z,1.20
2023-05-10T19:41:50.138Z,1.33
2023-05-10T20:14:21.600Z,1.48
2023-05-10T20:49:02.043Z,1.30
2023-05-10T20:52:44.033Z,1.10
2023-05-10T21:00:12.163Z,1.20
2023-05-10T21:10:17.335Z,1.30
2023-05-10T21:13:54.523Z,1.23
2023-05-10T21:17:06.489Z,1.33
2023-05-10T21:24:24.511Z,1.30
2023-05-10T21:27:38.793Z,1.10
2023-05-10T21:31:06.595Z,1.20
2023-05-10T21:38:21.830Z,1.20
2023-05-10T21:41:44.117Z,1.27
2023-05-10T21:48:47.361Z,1.10
2023-05-10T21:52:02.942Z,1.02
2023-05-10T21:56:31.696Z,1.12
2023-05-10T21:59:40.993Z,1.50
2023-05-10T22:10:02.233Z,1.20
2023-05-10T22:13:14.137Z,1.58
2023-05-10T22:16:43.862Z,1.15
2023-05-10T22:23:53.463Z,1.37
2023-05-10T22:30:43.712Z,1.42
2023-05-10T22:51:58.589Z,1.30
2023-05-10T23:03:28.346Z,1.40
2023-05-10T23:10:14.212Z,1.20
2023-05-10T23:13:42.734Z,1.30
2023-05-10T23:17:23.645Z,1.30
2023-05-10T23:20:56.391Z,1.20
2023-05-10T23:24:17.414Z,1.33
2023-05-10T23:34:24.586Z,1.50
2023-05-10T23:37:53.544Z,1.40
2023-05-10T23:44:26.759Z,1.30
2023-05-10T23:47:53.027Z,1.27
2023-05-10T23:51:29.370Z,1.17
2023-05-10T23:59:00.755Z,1.10
